createdAt,value
2022-08-22T00:00:11.735Z,100187.84
2022-08-22T00:05:28.923Z,100199.78
2022-08-22T00:10:47.162Z,100196.06
2022-08-22T00:15:56.468Z,100195.31
2022-08-22T00:21:06.477Z,100198.00
2022-08-22T00:26:15.330Z,100189.16
2022-08-22T00:31:26.721Z,100191.53
2022-08-22T00:36:34.650Z,100183.59
2022-08-22T00:41:49.969Z,100187.66
2022-08-22T00:47:11.110Z,100192.59
2022-08-22T00:52:37.406Z,100200.47
2022-08-22T00:57:54.495Z,100201.97
2022-08-22T01:03:46.701Z,100199.84
2022-08-22T01:09:04.185Z,100205.59
2022-08-22T01:14:34.256Z,100201.66
2022-08-22T01:20:04.763Z,100208.09
2022-08-22T01:25:38.322Z,100207.59
2022-08-22T01:31:12.181Z,100214.34
2022-08-22T01:36:32.014Z,100210.09
2022-08-22T01:42:00.973Z,100215.25
2022-08-22T01:47:06.048Z,100216.13
2022-08-22T01:52:13.171Z,100215.25
2022-08-22T01:57:14.793Z,100214.91
2022-08-22T02:02:34.360Z,100212.56
2022-08-22T02:07:48.546Z,100215.03
2022-08-22T02:12:56.573Z,100214.91
2022-08-22T02:18:12.741Z,100221.69
2022-08-22T02:23:23.287Z,100220.53
2022-08-22T02:28:34.078Z,100222.53
2022-08-22T02:33:43.575Z,100226.88
2022-08-22T02:38:57.107Z,100230.38
2022-08-22T02:44:02.714Z,100228.28
2022-08-22T02:49:14.105Z,100228.81
2022-08-22T02:54:22.213Z,100221.09
2022-08-22T02:59:33.306Z,100215.34
2022-08-22T03:04:52.026Z,100222.63
2022-08-22T03:10:07.155Z,100223.72
2022-08-22T03:15:14.372Z,100225.56
2022-08-22T03:20:21.359Z,100224.75
2022-08-22T03:25:31.714Z,100222.94
2022-08-22T03:30:38.019Z,100215.84
2022-08-22T03:35:54.420Z,100214.03
2022-08-22T03:41:11.905Z,100212.16
2022-08-22T03:46:52.608Z,100218.38
2022-08-22T03:52:07.688Z,100219.22
2022-08-22T03:57:48.025Z,100215.72
2022-08-22T04:03:19.541Z,100222.69
2022-08-22T04:08:58.154Z,100218.59
2022-08-22T04:14:40.515Z,100221.28
2022-08-22T04:19:59.984Z,100224.75
2022-08-22T04:25:07.721Z,100228.22
2022-08-22T04:30:26.369Z,100228.13
2022-08-22T04:35:32.384Z,100229.84
2022-08-22T04:40:37.821Z,100231.28
2022-08-22T04:45:47.573Z,100232.88
2022-08-22T04:50:51.850Z,100229.16
2022-08-22T04:56:07.091Z,100223.00
2022-08-22T05:01:16.637Z,100227.97
2022-08-22T05:06:20.108Z,100232.81
2022-08-22T05:11:25.000Z,100238.69
2022-08-22T05:16:33.692Z,100245.22
2022-08-22T05:21:38.508Z,100250.91
2022-08-22T05:26:46.944Z,100249.00
2022-08-22T05:31:54.584Z,100261.53
2022-08-22T05:37:03.927Z,100268.13
2022-08-22T05:42:16.522Z,100264.47
2022-08-22T05:47:23.995Z,100273.53
2022-08-22T05:52:37.944Z,100269.72
2022-08-22T05:57:42.607Z,100273.63
2022-08-22T06:02:59.314Z,100274.31
2022-08-22T06:08:05.732Z,100274.72
2022-08-22T06:13:11.885Z,100274.53
2022-08-22T06:18:17.865Z,100284.00
2022-08-22T06:23:24.582Z,100281.75
2022-08-22T06:28:27.653Z,100283.94
2022-08-22T06:33:32.165Z,100282.72
2022-08-22T06:38:52.919Z,100286.38
2022-08-22T06:43:55.088Z,100284.28
2022-08-22T06:49:00.346Z,100282.75
2022-08-22T06:54:04.536Z,100287.41
2022-08-22T06:59:12.044Z,100296.09
2022-08-22T07:04:14.718Z,100288.41
2022-08-22T07:09:26.850Z,100288.88
2022-08-22T07:14:31.171Z,100295.13
2022-08-22T07:19:37.019Z,100296.47
2022-08-22T07:24:39.388Z,100290.88
2022-08-22T07:29:48.766Z,100299.78
2022-08-22T07:35:07.735Z,100295.03
2022-08-22T07:40:17.789Z,100296.66
2022-08-22T07:45:26.919Z,100292.25
2022-08-22T07:50:33.523Z,100292.59
2022-08-22T07:55:42.241Z,100291.63
2022-08-22T08:00:52.679Z,100284.59
2022-08-22T08:05:55.734Z,100287.16
2022-08-22T08:11:00.265Z,100282.59
2022-08-22T08:16:01.702Z,100290.09
2022-08-22T08:21:07.849Z,100289.06
2022-08-22T08:26:13.096Z,100291.75
2022-08-22T08:31:24.785Z,100282.25
2022-08-22T08:36:37.848Z,100281.97
2022-08-22T08:42:11.505Z,100280.19
2022-08-22T08:47:27.319Z,100273.13
2022-08-22T08:52:59.416Z,100270.63
2022-08-22T08:58:17.728Z,100270.25
2022-08-22T09:03:38.382Z,100260.63
2022-08-22T09:08:55.662Z,100268.44
2022-08-22T09:14:11.859Z,100273.22
2022-08-22T09:19:38.733Z,100279.88
2022-08-22T09:25:12.619Z,100278.69
2022-08-22T09:30:27.737Z,100279.06
2022-08-22T09:35:41.059Z,100275.44
2022-08-22T09:40:49.908Z,100263.38
2022-08-22T09:46:03.510Z,100276.56
2022-08-22T09:51:33.086Z,100280.41
2022-08-22T09:56:39.537Z,100282.25
2022-08-22T10:01:48.812Z,100277.97
2022-08-22T10:07:02.805Z,100286.56
2022-08-22T10:12:12.887Z,100281.16
2022-08-22T10:17:21.959Z,100282.44
2022-08-22T10:22:30.928Z,100279.91
2022-08-22T10:27:45.245Z,100278.81
2022-08-22T10:32:52.500Z,100290.56
2022-08-22T10:37:58.429Z,100286.00
2022-08-22T10:43:09.299Z,100280.47
2022-08-22T10:48:36.112Z,100287.19
2022-08-22T10:53:54.796Z,100284.41
2022-08-22T10:59:06.106Z,100282.31
2022-08-22T11:04:18.921Z,100282.91
2022-08-22T11:09:36.857Z,100284.78
2022-08-22T11:15:09.040Z,100285.34
2022-08-22T11:20:23.413Z,100293.94
2022-08-22T11:25:53.717Z,100293.94
2022-08-22T11:31:07.025Z,100289.28
2022-08-22T11:36:27.292Z,100296.19
2022-08-22T11:41:38.163Z,100298.97
2022-08-22T11:46:48.358Z,100299.63
2022-08-22T11:52:01.144Z,100300.81
2022-08-22T11:57:07.894Z,100297.53
2022-08-22T12:02:20.477Z,100296.00
2022-08-22T12:07:29.315Z,100291.22
2022-08-22T12:12:55.352Z,100292.16
2022-08-22T12:18:25.110Z,100285.75
2022-08-22T12:23:57.180Z,100290.66
2022-08-22T12:29:15.641Z,100276.94
2022-08-22T12:34:27.673Z,100279.72
2022-08-22T12:39:54.353Z,100273.06
2022-08-22T12:45:17.460Z,100266.59
2022-08-22T12:50:35.500Z,100264.81
2022-08-22T12:56:11.395Z,100260.84
2022-08-22T13:01:13.468Z,100252.94
2022-08-22T13:06:50.009Z,100256.34
2022-08-22T13:11:53.668Z,100254.50
2022-08-22T13:17:23.835Z,100259.84
2022-08-22T13:22:29.409Z,100258.59
2022-08-22T13:27:34.569Z,100260.09
2022-08-22T13:32:44.376Z,100264.97
2022-08-22T13:37:51.381Z,100263.06
2022-08-22T13:43:04.171Z,100258.94
2022-08-22T13:48:11.495Z,100261.91
2022-08-22T13:53:24.925Z,100262.72
2022-08-22T13:58:37.372Z,100256.19
2022-08-22T14:03:48.848Z,100251.81
2022-08-22T14:08:54.665Z,100252.84
2022-08-22T14:13:59.985Z,100249.56
2022-08-22T14:19:07.087Z,100239.44
2022-08-22T14:24:17.138Z,100237.91
2022-08-22T14:29:22.300Z,100232.41
2022-08-22T14:34:24.107Z,100239.78
2022-08-22T14:39:32.120Z,100232.03
2022-08-22T14:44:43.304Z,100233.31
2022-08-22T14:49:53.601Z,100235.00
2022-08-22T14:55:09.639Z,100233.88
2022-08-22T15:00:12.922Z,100233.97
2022-08-22T15:05:17.741Z,100234.16
2022-08-22T15:10:25.965Z,100234.88
2022-08-22T15:15:49.706Z,100239.06
2022-08-22T15:21:02.977Z,100239.97
2022-08-22T15:26:17.490Z,100234.09
2022-08-22T15:31:20.242Z,100228.19
2022-08-22T15:36:24.636Z,100232.66
2022-08-22T15:41:38.075Z,100233.50
2022-08-22T15:46:42.348Z,100235.28
2022-08-22T15:51:52.596Z,100226.56
2022-08-22T15:57:16.442Z,100226.63
2022-08-22T16:02:27.079Z,100226.69
2022-08-22T16:07:39.513Z,100224.34
2022-08-22T16:13:04.114Z,100226.56
2022-08-22T16:18:06.851Z,100218.28
2022-08-22T16:23:08.816Z,100221.06
2022-08-22T16:28:36.099Z,100224.50
2022-08-22T16:33:44.436Z,100226.19
2022-08-22T16:38:49.358Z,100232.16
2022-08-22T16:44:17.510Z,100240.13
2022-08-22T16:49:28.599Z,100244.72
2022-08-22T16:54:43.839Z,100237.53
2022-08-22T16:59:58.736Z,100240.69
2022-08-22T17:05:23.011Z,100247.81
2022-08-22T17:10:36.884Z,100265.75
2022-08-22T17:15:56.636Z,100260.22
2022-08-22T17:21:06.016Z,100259.53
2022-08-22T17:26:20.024Z,100271.41
2022-08-22T17:31:32.676Z,100271.78
2022-08-22T17:36:53.099Z,100269.78
2022-08-22T17:42:02.191Z,100269.06
2022-08-22T17:47:14.863Z,100271.00
2022-08-22T17:52:23.891Z,100275.16
2022-08-22T17:57:30.526Z,100277.75
2022-08-22T18:02:40.656Z,100279.09
2022-08-22T18:08:02.320Z,100280.78
2022-08-22T18:13:11.240Z,100291.97
2022-08-22T18:18:29.517Z,100288.47
2022-08-22T18:23:39.123Z,100292.91
2022-08-22T18:28:50.981Z,100293.31
2022-08-22T18:34:00.763Z,100295.97
2022-08-22T18:39:07.157Z,100304.97
2022-08-22T18:44:11.989Z,100298.22
2022-08-22T18:49:43.371Z,100304.97
2022-08-22T18:54:57.423Z,100302.63
2022-08-22T19:00:08.534Z,100300.28
2022-08-22T19:06:02.267Z,100304.06
2022-08-22T19:11:17.311Z,100301.41
2022-08-22T19:16:47.927Z,100314.31
2022-08-22T19:22:33.773Z,100305.66
2022-08-22T19:27:39.537Z,100308.75
2022-08-22T19:33:01.406Z,100300.78
2022-08-22T19:38:05.313Z,100308.28
2022-08-22T19:43:21.241Z,100298.16
2022-08-22T19:48:28.917Z,100306.84
2022-08-22T19:53:39.703Z,100309.31
2022-08-22T19:58:55.404Z,100314.50
2022-08-22T20:04:02.192Z,100321.91
2022-08-22T20:09:25.711Z,100321.53
2022-08-22T20:14:31.413Z,100317.44
2022-08-22T20:19:42.648Z,100310.19
2022-08-22T20:24:46.834Z,100316.19
2022-08-22T20:29:53.961Z,100311.63
2022-08-22T20:34:58.705Z,100307.78
2022-08-22T20:40:25.898Z,100297.91
2022-08-22T20:45:49.126Z,100306.94
2022-08-22T20:50:51.579Z,100305.44
2022-08-22T20:55:54.925Z,100294.25
2022-08-22T21:01:00.073Z,100296.72
2022-08-22T21:06:11.892Z,100299.66
2022-08-22T21:11:40.222Z,100294.94
2022-08-22T21:16:42.228Z,100290.97
2022-08-22T21:21:42.949Z,100298.22
2022-08-22T21:26:50.622Z,100287.13
2022-08-22T21:31:59.213Z,100296.53
2022-08-22T21:37:09.808Z,100297.63
2022-08-22T21:42:13.433Z,100304.69
2022-08-22T21:47:30.541Z,100298.66
2022-08-22T21:52:33.996Z,100297.91
2022-08-22T21:57:36.641Z,100302.38
2022-08-22T22:02:40.595Z,100303.44
2022-08-22T22:07:43.742Z,100299.69
2022-08-22T22:12:47.240Z,100289.75
2022-08-22T22:17:49.332Z,100296.44
2022-08-22T22:22:50.766Z,100296.44
2022-08-22T22:27:51.670Z,100290.31
2022-08-22T22:32:53.672Z,100283.34
2022-08-22T22:37:56.103Z,100282.50
2022-08-22T22:42:56.884Z,100286.09
2022-08-22T22:47:59.252Z,100279.31
2022-08-22T22:53:00.571Z,100288.44
2022-08-22T22:58:01.741Z,100276.19
2022-08-22T23:03:06.599Z,100274.13
2022-08-22T23:08:07.349Z,100264.88
2022-08-22T23:13:08.022Z,100277.91
2022-08-22T23:18:10.103Z,100284.03
2022-08-22T23:23:10.767Z,100266.72
2022-08-22T23:28:11.570Z,100263.91
2022-08-22T23:33:14.305Z,100262.88
2022-08-22T23:38:15.004Z,100267.88
2022-08-22T23:43:20.909Z,100264.47
2022-08-22T23:48:22.943Z,100268.44
2022-08-22T23:53:23.609Z,100264.94
2022-08-22T23:58:24.342Z,100263.47
